Culver, Oregon
Current Conditions -  °F | °C
As of 9:56 AM on Thursday 30 Oct 2014 (Local Time) from KRDM Reporting Station
Haze Haze  
Wind Chill: 48°   Ceiling: Unl
Heat Index: 48°   Visibility: 5mi
Dew Point: 48°   Wind: 3mph
Humidity: 100%   Direction: 280°W
Pressure: 30.01"   Gusts: NA
Location:  44.53°N, 121.21°W
Report Text: KRDM 301656Z 28003KT 5SM BR SCT003 SCT110 09/09 A3001 RMK AO2 SLP159 T00890089
Loading
Personal Weather Stations






























Interactive Weather Map
Tropical Storm Tracking
New forecast layout! Learn more

10-Day Weather Forecast

Advertisements
Track Severe Weather on mobile